sensor_id;sensor_type;location;lat;lon;timestamp;P1;durP1;ratioP1;P2;durP2;ratioP2
50681;SDS011;36779;52.168;20.878;2022-08-19T00:00:44;16.90;;;11.80;;
50681;SDS011;36779;52.168;20.878;2022-08-19T00:03:12;16.10;;;11.30;;
50681;SDS011;36779;52.168;20.878;2022-08-19T00:10:39;13.30;;;11.60;;
50681;SDS011;36779;52.168;20.878;2022-08-19T00:13:21;13.40;;;11.70;;
50681;SDS011;36779;52.168;20.878;2022-08-19T00:24:29;13.20;;;11.50;;
50681;SDS011;36779;52.168;20.878;2022-08-19T00:27:08;14.40;;;12.30;;
50681;SDS011;36779;52.168;20.878;2022-08-19T00:34:45;14.70;;;11.50;;
50681;SDS011;36779;52.168;20.878;2022-08-19T00:44:50;15.30;;;12.00;;
50681;SDS011;36779;52.168;20.878;2022-08-19T00:47:36;14.40;;;12.00;;
50681;SDS011;36779;52.168;20.878;2022-08-19T00:50:25;16.50;;;12.30;;
50681;SDS011;36779;52.168;20.878;2022-08-19T00:52:55;15.30;;;11.00;;
50681;SDS011;36779;52.168;20.878;2022-08-19T00:55:45;12.60;;;11.30;;
50681;SDS011;36779;52.168;20.878;2022-08-19T00:58:19;13.70;;;12.20;;
50681;SDS011;36779;52.168;20.878;2022-08-19T01:00:52;14.80;;;12.30;;
50681;SDS011;36779;52.168;20.878;2022-08-19T01:03:22;13.80;;;12.20;;
50681;SDS011;36779;52.168;20.878;2022-08-19T01:05:52;16.80;;;12.50;;
50681;SDS011;36779;52.168;20.878;2022-08-19T01:08:22;14.50;;;11.60;;
50681;SDS011;36779;52.168;20.878;2022-08-19T01:11:14;16.00;;;12.00;;
50681;SDS011;36779;52.168;20.878;2022-08-19T01:13:42;18.20;;;11.50;;
50681;SDS011;36779;52.168;20.878;2022-08-19T01:16:17;14.50;;;12.40;;
50681;SDS011;36779;52.168;20.878;2022-08-19T01:18:49;14.50;;;13.00;;
50681;SDS011;36779;52.168;20.878;2022-08-19T01:21:20;15.30;;;13.20;;
50681;SDS011;36779;52.168;20.878;2022-08-19T01:23:54;16.70;;;12.60;;
50681;SDS011;36779;52.168;20.878;2022-08-19T01:26:24;16.40;;;11.20;;
50681;SDS011;36779;52.168;20.878;2022-08-19T01:28:57;12.10;;;10.90;;
50681;SDS011;36779;52.168;20.878;2022-08-19T01:31:31;15.60;;;12.80;;
50681;SDS011;36779;52.168;20.878;2022-08-19T01:34:00;16.20;;;12.40;;
50681;SDS011;36779;52.168;20.878;2022-08-19T01:36:31;14.60;;;12.50;;
50681;SDS011;36779;52.168;20.878;2022-08-19T01:39:05;15.00;;;12.80;;
50681;SDS011;36779;52.168;20.878;2022-08-19T01:41:39;18.00;;;12.00;;
50681;SDS011;36779;52.168;20.878;2022-08-19T01:44:08;12.90;;;10.90;;
50681;SDS011;36779;52.168;20.878;2022-08-19T01:46:46;16.00;;;12.30;;
50681;SDS011;36779;52.168;20.878;2022-08-19T01:49:16;13.60;;;11.70;;
50681;SDS011;36779;52.168;20.878;2022-08-19T01:51:46;15.50;;;12.60;;
50681;SDS011;36779;52.168;20.878;2022-08-19T01:54:17;15.40;;;13.70;;
50681;SDS011;36779;52.168;20.878;2022-08-19T01:56:55;14.50;;;12.50;;
50681;SDS011;36779;52.168;20.878;2022-08-19T01:59:28;14.10;;;11.50;;
50681;SDS011;36779;52.168;20.878;2022-08-19T02:02:02;13.90;;;11.50;;
50681;SDS011;36779;52.168;20.878;2022-08-19T02:04:34;14.30;;;11.60;;
50681;SDS011;36779;52.168;20.878;2022-08-19T02:07:07;16.70;;;11.60;;
50681;SDS011;36779;52.168;20.878;2022-08-19T02:09:36;18.70;;;11.70;;
50681;SDS011;36779;52.168;20.878;2022-08-19T02:12:16;13.90;;;12.00;;
50681;SDS011;36779;52.168;20.878;2022-08-19T02:14:44;13.60;;;11.40;;
50681;SDS011;36779;52.168;20.878;2022-08-19T02:17:13;17.40;;;10.80;;
50681;SDS011;36779;52.168;20.878;2022-08-19T02:19:44;12.60;;;10.70;;
50681;SDS011;36779;52.168;20.878;2022-08-19T02:22:15;12.80;;;11.20;;
50681;SDS011;36779;52.168;20.878;2022-08-19T02:24:46;13.40;;;11.10;;
50681;SDS011;36779;52.168;20.878;2022-08-19T02:27:15;15.30;;;11.80;;
50681;SDS011;36779;52.168;20.878;2022-08-19T02:29:44;15.80;;;11.20;;
50681;SDS011;36779;52.168;20.878;2022-08-19T02:32:15;13.50;;;10.60;;
50681;SDS011;36779;52.168;20.878;2022-08-19T02:34:46;13.20;;;10.90;;
50681;SDS011;36779;52.168;20.878;2022-08-19T02:37:15;17.20;;;11.80;;
50681;SDS011;36779;52.168;20.878;2022-08-19T02:40:20;14.10;;;11.50;;
50681;SDS011;36779;52.168;20.878;2022-08-19T02:42:49;16.30;;;12.00;;
50681;SDS011;36779;52.168;20.878;2022-08-19T02:45:19;14.90;;;12.00;;
50681;SDS011;36779;52.168;20.878;2022-08-19T02:47:48;12.90;;;11.40;;
50681;SDS011;36779;52.168;20.878;2022-08-19T02:50:17;14.00;;;10.80;;
50681;SDS011;36779;52.168;20.878;2022-08-19T02:52:46;13.20;;;11.00;;
50681;SDS011;36779;52.168;20.878;2022-08-19T02:55:15;14.80;;;12.10;;
50681;SDS011;36779;52.168;20.878;2022-08-19T02:57:44;14.80;;;12.90;;
50681;SDS011;36779;52.168;20.878;2022-08-19T03:00:12;13.70;;;12.40;;
50681;SDS011;36779;52.168;20.878;2022-08-19T03:02:42;17.60;;;12.00;;
50681;SDS011;36779;52.168;20.878;2022-08-19T03:05:10;12.20;;;10.80;;
50681;SDS011;36779;52.168;20.878;2022-08-19T03:07:39;15.10;;;12.10;;
50681;SDS011;36779;52.168;20.878;2022-08-19T03:10:08;14.60;;;12.90;;
50681;SDS011;36779;52.168;20.878;2022-08-19T03:12:37;17.30;;;13.50;;
50681;SDS011;36779;52.168;20.878;2022-08-19T03:15:07;14.20;;;11.30;;
50681;SDS011;36779;52.168;20.878;2022-08-19T03:17:37;15.10;;;13.00;;
50681;SDS011;36779;52.168;20.878;2022-08-19T03:20:10;16.80;;;11.80;;
50681;SDS011;36779;52.168;20.878;2022-08-19T03:22:39;13.30;;;11.90;;
50681;SDS011;36779;52.168;20.878;2022-08-19T03:25:08;18.90;;;14.10;;
50681;SDS011;36779;52.168;20.878;2022-08-19T03:27:38;16.30;;;12.80;;
50681;SDS011;36779;52.168;20.878;2022-08-19T03:30:08;17.80;;;12.60;;
50681;SDS011;36779;52.168;20.878;2022-08-19T03:32:38;13.80;;;12.10;;
50681;SDS011;36779;52.168;20.878;2022-08-19T03:35:25;15.70;;;12.00;;
50681;SDS011;36779;52.168;20.878;2022-08-19T03:37:56;17.70;;;12.00;;
50681;SDS011;36779;52.168;20.878;2022-08-19T03:40:26;13.80;;;11.90;;
50681;SDS011;36779;52.168;20.878;2022-08-19T03:43:09;18.70;;;12.60;;
50681;SDS011;36779;52.168;20.878;2022-08-19T03:45:38;15.70;;;12.10;;
50681;SDS011;36779;52.168;20.878;2022-08-19T03:48:09;13.80;;;12.40;;
50681;SDS011;36779;52.168;20.878;2022-08-19T03:50:41;13.90;;;12.00;;
50681;SDS011;36779;52.168;20.878;2022-08-19T03:53:09;14.40;;;12.00;;
50681;SDS011;36779;52.168;20.878;2022-08-19T03:55:39;14.80;;;12.60;;
50681;SDS011;36779;52.168;20.878;2022-08-19T03:58:09;13.80;;;12.30;;
50681;SDS011;36779;52.168;20.878;2022-08-19T04:00:41;14.30;;;12.30;;
50681;SDS011;36779;52.168;20.878;2022-08-19T04:03:10;15.00;;;12.70;;
50681;SDS011;36779;52.168;20.878;2022-08-19T04:05:38;14.40;;;12.00;;
50681;SDS011;36779;52.168;20.878;2022-08-19T04:08:07;13.60;;;12.30;;
50681;SDS011;36779;52.168;20.878;2022-08-19T04:10:40;14.80;;;12.90;;
50681;SDS011;36779;52.168;20.878;2022-08-19T04:13:11;14.50;;;13.00;;
50681;SDS011;36779;52.168;20.878;2022-08-19T04:15:43;17.80;;;14.00;;
50681;SDS011;36779;52.168;20.878;2022-08-19T04:18:13;17.60;;;12.60;;
50681;SDS011;36779;52.168;20.878;2022-08-19T04:20:42;15.80;;;12.40;;
50681;SDS011;36779;52.168;20.878;2022-08-19T04:23:15;16.80;;;12.60;;
50681;SDS011;36779;52.168;20.878;2022-08-19T04:25:46;15.30;;;12.70;;
50681;SDS011;36779;52.168;20.878;2022-08-19T04:28:17;19.40;;;13.90;;
50681;SDS011;36779;52.168;20.878;2022-08-19T04:30:46;20.90;;;13.20;;
50681;SDS011;36779;52.168;20.878;2022-08-19T04:33:18;14.50;;;12.40;;
50681;SDS011;36779;52.168;20.878;2022-08-19T04:35:55;18.40;;;13.10;;
50681;SDS011;36779;52.168;20.878;2022-08-19T04:38:25;16.60;;;13.00;;
50681;SDS011;36779;52.168;20.878;2022-08-19T04:40:54;17.40;;;12.90;;
50681;SDS011;36779;52.168;20.878;2022-08-19T04:43:51;17.40;;;13.10;;
50681;SDS011;36779;52.168;20.878;2022-08-19T04:46:22;16.30;;;13.10;;
50681;SDS011;36779;52.168;20.878;2022-08-19T04:49:10;19.50;;;12.70;;
50681;SDS011;36779;52.168;20.878;2022-08-19T04:51:43;14.10;;;12.60;;
50681;SDS011;36779;52.168;20.878;2022-08-19T04:54:17;17.30;;;13.50;;
50681;SDS011;36779;52.168;20.878;2022-08-19T04:57:08;18.60;;;13.20;;
50681;SDS011;36779;52.168;20.878;2022-08-19T04:59:38;20.00;;;13.70;;
50681;SDS011;36779;52.168;20.878;2022-08-19T05:02:07;17.60;;;14.50;;
50681;SDS011;36779;52.168;20.878;2022-08-19T05:04:36;15.80;;;13.90;;
50681;SDS011;36779;52.168;20.878;2022-08-19T05:07:06;19.70;;;14.30;;
50681;SDS011;36779;52.168;20.878;2022-08-19T05:09:36;16.90;;;13.70;;
50681;SDS011;36779;52.168;20.878;2022-08-19T05:12:25;16.80;;;13.10;;
50681;SDS011;36779;52.168;20.878;2022-08-19T05:15:16;14.50;;;12.30;;
50681;SDS011;36779;52.168;20.878;2022-08-19T05:17:46;16.20;;;13.10;;
50681;SDS011;36779;52.168;20.878;2022-08-19T05:20:29;15.90;;;13.50;;
50681;SDS011;36779;52.168;20.878;2022-08-19T05:23:16;20.60;;;13.70;;
50681;SDS011;36779;52.168;20.878;2022-08-19T05:25:49;18.80;;;14.50;;
50681;SDS011;36779;52.168;20.878;2022-08-19T05:28:21;19.70;;;13.10;;
50681;SDS011;36779;52.168;20.878;2022-08-19T05:30:50;17.80;;;12.80;;
50681;SDS011;36779;52.168;20.878;2022-08-19T05:33:22;14.90;;;11.90;;
50681;SDS011;36779;52.168;20.878;2022-08-19T05:35:51;14.70;;;13.00;;
50681;SDS011;36779;52.168;20.878;2022-08-19T05:38:19;18.90;;;13.70;;
50681;SDS011;36779;52.168;20.878;2022-08-19T05:40:49;18.10;;;13.30;;
50681;SDS011;36779;52.168;20.878;2022-08-19T05:43:17;15.30;;;13.40;;
50681;SDS011;36779;52.168;20.878;2022-08-19T05:45:46;17.90;;;13.10;;
50681;SDS011;36779;52.168;20.878;2022-08-19T05:48:15;17.40;;;13.00;;
50681;SDS011;36779;52.168;20.878;2022-08-19T05:50:51;14.20;;;12.70;;
50681;SDS011;36779;52.168;20.878;2022-08-19T05:53:20;15.10;;;12.70;;
50681;SDS011;36779;52.168;20.878;2022-08-19T05:55:48;14.30;;;12.30;;
50681;SDS011;36779;52.168;20.878;2022-08-19T05:58:17;18.80;;;12.50;;
50681;SDS011;36779;52.168;20.878;2022-08-19T06:00:52;17.50;;;13.00;;
50681;SDS011;36779;52.168;20.878;2022-08-19T06:03:32;17.80;;;12.40;;
50681;SDS011;36779;52.168;20.878;2022-08-19T06:06:08;14.80;;;11.90;;
50681;SDS011;36779;52.168;20.878;2022-08-19T06:08:40;14.20;;;11.20;;
50681;SDS011;36779;52.168;20.878;2022-08-19T06:11:16;15.70;;;11.90;;
50681;SDS011;36779;52.168;20.878;2022-08-19T06:13:51;13.20;;;11.60;;
50681;SDS011;36779;52.168;20.878;2022-08-19T06:16:29;15.10;;;11.70;;
50681;SDS011;36779;52.168;20.878;2022-08-19T06:19:12;14.40;;;11.90;;
50681;SDS011;36779;52.168;20.878;2022-08-19T06:21:44;16.70;;;11.80;;
50681;SDS011;36779;52.168;20.878;2022-08-19T06:24:15;14.10;;;11.20;;
50681;SDS011;36779;52.168;20.878;2022-08-19T06:26:46;14.70;;;11.00;;
50681;SDS011;36779;52.168;20.878;2022-08-19T06:29:32;11.80;;;10.50;;
50681;SDS011;36779;52.168;20.878;2022-08-19T06:32:02;15.40;;;11.00;;
50681;SDS011;36779;52.168;20.878;2022-08-19T06:34:32;13.90;;;11.50;;
50681;SDS011;36779;52.168;20.878;2022-08-19T06:37:02;15.60;;;11.70;;
50681;SDS011;36779;52.168;20.878;2022-08-19T06:39:33;13.50;;;10.90;;
50681;SDS011;36779;52.168;20.878;2022-08-19T06:42:08;13.40;;;10.70;;
50681;SDS011;36779;52.168;20.878;2022-08-19T06:45:00;13.10;;;10.80;;
50681;SDS011;36779;52.168;20.878;2022-08-19T06:47:56;16.30;;;10.60;;
50681;SDS011;36779;52.168;20.878;2022-08-19T06:50:27;14.70;;;10.80;;
50681;SDS011;36779;52.168;20.878;2022-08-19T06:53:07;13.00;;;10.60;;
50681;SDS011;36779;52.168;20.878;2022-08-19T06:55:36;14.60;;;10.70;;
50681;SDS011;36779;52.168;20.878;2022-08-19T06:58:04;13.90;;;10.50;;
50681;SDS011;36779;52.168;20.878;2022-08-19T07:00:33;15.10;;;11.10;;
50681;SDS011;36779;52.168;20.878;2022-08-19T07:03:03;15.00;;;10.60;;
50681;SDS011;36779;52.168;20.878;2022-08-19T07:05:39;16.80;;;10.80;;
50681;SDS011;36779;52.168;20.878;2022-08-19T07:08:15;11.90;;;10.10;;
50681;SDS011;36779;52.168;20.878;2022-08-19T07:10:45;13.60;;;10.60;;
50681;SDS011;36779;52.168;20.878;2022-08-19T07:13:14;14.10;;;10.10;;
50681;SDS011;36779;52.168;20.878;2022-08-19T07:15:43;15.60;;;10.10;;
50681;SDS011;36779;52.168;20.878;2022-08-19T07:18:14;18.30;;;10.90;;
50681;SDS011;36779;52.168;20.878;2022-08-19T07:21:02;17.80;;;10.60;;
50681;SDS011;36779;52.168;20.878;2022-08-19T07:23:38;17.40;;;10.10;;
50681;SDS011;36779;52.168;20.878;2022-08-19T07:26:07;11.50;;;9.20;;
50681;SDS011;36779;52.168;20.878;2022-08-19T07:28:37;17.70;;;10.20;;
50681;SDS011;36779;52.168;20.878;2022-08-19T07:31:22;14.60;;;9.90;;
50681;SDS011;36779;52.168;20.878;2022-08-19T07:33:53;11.40;;;9.50;;
50681;SDS011;36779;52.168;20.878;2022-08-19T07:36:27;10.70;;;8.90;;
50681;SDS011;36779;52.168;20.878;2022-08-19T07:39:20;12.70;;;9.60;;
50681;SDS011;36779;52.168;20.878;2022-08-19T07:41:54;11.40;;;9.30;;
50681;SDS011;36779;52.168;20.878;2022-08-19T07:44:25;11.60;;;8.90;;
50681;SDS011;36779;52.168;20.878;2022-08-19T07:47:14;12.30;;;8.90;;
50681;SDS011;36779;52.168;20.878;2022-08-19T07:50:24;11.20;;;9.20;;
50681;SDS011;36779;52.168;20.878;2022-08-19T07:55:51;10.80;;;9.70;;
50681;SDS011;36779;52.168;20.878;2022-08-19T07:58:23;17.20;;;9.50;;
50681;SDS011;36779;52.168;20.878;2022-08-19T08:00:52;15.20;;;9.90;;
50681;SDS011;36779;52.168;20.878;2022-08-19T08:03:41;12.00;;;9.50;;
50681;SDS011;36779;52.168;20.878;2022-08-19T08:06:31;12.60;;;10.00;;
50681;SDS011;36779;52.168;20.878;2022-08-19T08:09:26;14.60;;;9.60;;
50681;SDS011;36779;52.168;20.878;2022-08-19T08:12:02;11.20;;;10.00;;
50681;SDS011;36779;52.168;20.878;2022-08-19T08:14:54;13.60;;;10.70;;
50681;SDS011;36779;52.168;20.878;2022-08-19T08:17:39;11.80;;;9.50;;
50681;SDS011;36779;52.168;20.878;2022-08-19T08:20:38;12.60;;;10.30;;
50681;SDS011;36779;52.168;20.878;2022-08-19T08:23:27;15.30;;;10.00;;
50681;SDS011;36779;52.168;20.878;2022-08-19T08:26:00;12.90;;;10.10;;
50681;SDS011;36779;52.168;20.878;2022-08-19T08:28:49;14.30;;;10.60;;
50681;SDS011;36779;52.168;20.878;2022-08-19T08:31:38;13.30;;;9.80;;
50681;SDS011;36779;52.168;20.878;2022-08-19T08:34:11;12.10;;;9.80;;
50681;SDS011;36779;52.168;20.878;2022-08-19T08:37:01;13.60;;;9.40;;
50681;SDS011;36779;52.168;20.878;2022-08-19T08:39:51;11.00;;;9.90;;
50681;SDS011;36779;52.168;20.878;2022-08-19T08:42:48;13.30;;;10.10;;
50681;SDS011;36779;52.168;20.878;2022-08-19T08:45:50;12.10;;;10.00;;
50681;SDS011;36779;52.168;20.878;2022-08-19T08:48:35;13.80;;;9.60;;
50681;SDS011;36779;52.168;20.878;2022-08-19T08:51:29;13.50;;;9.20;;
50681;SDS011;36779;52.168;20.878;2022-08-19T08:54:22;12.90;;;10.20;;
50681;SDS011;36779;52.168;20.878;2022-08-19T08:57:07;10.30;;;8.90;;
50681;SDS011;36779;52.168;20.878;2022-08-19T09:00:00;10.60;;;9.50;;
50681;SDS011;36779;52.168;20.878;2022-08-19T09:03:03;14.70;;;9.00;;
50681;SDS011;36779;52.168;20.878;2022-08-19T09:05:59;11.50;;;8.30;;
50681;SDS011;36779;52.168;20.878;2022-08-19T09:08:43;11.60;;;8.40;;
50681;SDS011;36779;52.168;20.878;2022-08-19T09:11:53;10.50;;;7.40;;
50681;SDS011;36779;52.168;20.878;2022-08-19T09:14:49;11.70;;;7.70;;
50681;SDS011;36779;52.168;20.878;2022-08-19T09:17:41;9.40;;;7.40;;
50681;SDS011;36779;52.168;20.878;2022-08-19T09:20:37;15.70;;;7.60;;
50681;SDS011;36779;52.168;20.878;2022-08-19T09:23:31;8.90;;;7.70;;
50681;SDS011;36779;52.168;20.878;2022-08-19T09:26:23;9.60;;;7.30;;
50681;SDS011;36779;52.168;20.878;2022-08-19T09:29:33;10.80;;;7.00;;
50681;SDS011;36779;52.168;20.878;2022-08-19T09:32:22;11.10;;;7.30;;
50681;SDS011;36779;52.168;20.878;2022-08-19T09:35:14;12.10;;;6.90;;
50681;SDS011;36779;52.168;20.878;2022-08-19T09:38:03;8.60;;;6.80;;
50681;SDS011;36779;52.168;20.878;2022-08-19T09:41:01;8.20;;;6.90;;
50681;SDS011;36779;52.168;20.878;2022-08-19T09:43:54;9.10;;;7.50;;
50681;SDS011;36779;52.168;20.878;2022-08-19T09:46:44;7.90;;;6.90;;
50681;SDS011;36779;52.168;20.878;2022-08-19T09:49:34;9.80;;;7.30;;
50681;SDS011;36779;52.168;20.878;2022-08-19T09:52:25;9.40;;;7.20;;
50681;SDS011;36779;52.168;20.878;2022-08-19T09:55:19;10.20;;;7.10;;
50681;SDS011;36779;52.168;20.878;2022-08-19T09:58:11;14.80;;;6.90;;
50681;SDS011;36779;52.168;20.878;2022-08-19T10:01:00;11.30;;;7.10;;
50681;SDS011;36779;52.168;20.878;2022-08-19T10:03:51;12.20;;;6.80;;
50681;SDS011;36779;52.168;20.878;2022-08-19T10:06:42;10.20;;;6.40;;
50681;SDS011;36779;52.168;20.878;2022-08-19T10:09:28;10.40;;;7.10;;
50681;SDS011;36779;52.168;20.878;2022-08-19T10:12:21;11.80;;;7.00;;
50681;SDS011;36779;52.168;20.878;2022-08-19T10:15:13;12.70;;;7.20;;
50681;SDS011;36779;52.168;20.878;2022-08-19T10:18:02;9.70;;;7.00;;
50681;SDS011;36779;52.168;20.878;2022-08-19T10:21:01;9.10;;;6.60;;
50681;SDS011;36779;52.168;20.878;2022-08-19T10:23:56;7.50;;;6.10;;
50681;SDS011;36779;52.168;20.878;2022-08-19T10:26:47;11.40;;;6.40;;
50681;SDS011;36779;52.168;20.878;2022-08-19T10:29:43;7.90;;;6.60;;
50681;SDS011;36779;52.168;20.878;2022-08-19T10:32:38;10.60;;;6.60;;
50681;SDS011;36779;52.168;20.878;2022-08-19T10:35:33;9.30;;;6.80;;
50681;SDS011;36779;52.168;20.878;2022-08-19T10:38:46;9.80;;;7.00;;
50681;SDS011;36779;52.168;20.878;2022-08-19T10:41:42;13.40;;;7.10;;
50681;SDS011;36779;52.168;20.878;2022-08-19T10:44:32;11.00;;;7.30;;
50681;SDS011;36779;52.168;20.878;2022-08-19T10:47:22;8.90;;;7.30;;
50681;SDS011;36779;52.168;20.878;2022-08-19T10:50:18;8.40;;;6.70;;
50681;SDS011;36779;52.168;20.878;2022-08-19T10:53:26;13.00;;;6.90;;
50681;SDS011;36779;52.168;20.878;2022-08-19T11:03:01;11.00;;;6.90;;
50681;SDS011;36779;52.168;20.878;2022-08-19T11:10:53;10.50;;;7.10;;
50681;SDS011;36779;52.168;20.878;2022-08-19T11:18:21;10.60;;;6.60;;
50681;SDS011;36779;52.168;20.878;2022-08-19T11:25:30;8.30;;;5.80;;
50681;SDS011;36779;52.168;20.878;2022-08-19T11:33:26;11.70;;;6.60;;
50681;SDS011;36779;52.168;20.878;2022-08-19T11:37:07;9.60;;;6.70;;
50681;SDS011;36779;52.168;20.878;2022-08-19T11:40:11;7.50;;;6.50;;
50681;SDS011;36779;52.168;20.878;2022-08-19T15:04:23;7.60;;;5.50;;
50681;SDS011;36779;52.168;20.878;2022-08-19T15:07:35;10.90;;;5.50;;
50681;SDS011;36779;52.168;20.878;2022-08-19T15:14:47;10.10;;;5.80;;
50681;SDS011;36779;52.168;20.878;2022-08-19T15:17:39;8.90;;;5.50;;
50681;SDS011;36779;52.168;20.878;2022-08-19T15:20:33;9.00;;;5.80;;
50681;SDS011;36779;52.168;20.878;2022-08-19T15:23:22;5.50;;;5.00;;
50681;SDS011;36779;52.168;20.878;2022-08-19T15:26:11;7.80;;;5.20;;
50681;SDS011;36779;52.168;20.878;2022-08-19T15:29:03;6.00;;;5.10;;
50681;SDS011;36779;52.168;20.878;2022-08-19T15:31:52;9.20;;;4.70;;
50681;SDS011;36779;52.168;20.878;2022-08-19T15:34:45;8.80;;;4.90;;
50681;SDS011;36779;52.168;20.878;2022-08-19T15:37:36;10.40;;;5.10;;
50681;SDS011;36779;52.168;20.878;2022-08-19T15:40:25;7.00;;;4.50;;
50681;SDS011;36779;52.168;20.878;2022-08-19T15:43:15;8.40;;;5.00;;
50681;SDS011;36779;52.168;20.878;2022-08-19T15:46:05;8.50;;;4.60;;
50681;SDS011;36779;52.168;20.878;2022-08-19T15:48:54;7.30;;;4.80;;
50681;SDS011;36779;52.168;20.878;2022-08-19T15:51:48;10.40;;;4.50;;
50681;SDS011;36779;52.168;20.878;2022-08-19T15:54:41;9.30;;;4.80;;
50681;SDS011;36779;52.168;20.878;2022-08-19T15:57:25;9.00;;;4.70;;
50681;SDS011;36779;52.168;20.878;2022-08-19T16:00:28;7.60;;;4.80;;
50681;SDS011;36779;52.168;20.878;2022-08-19T16:03:33;6.80;;;4.60;;
50681;SDS011;36779;52.168;20.878;2022-08-19T16:06:40;12.00;;;5.10;;
50681;SDS011;36779;52.168;20.878;2022-08-19T16:09:32;6.50;;;4.40;;
50681;SDS011;36779;52.168;20.878;2022-08-19T16:12:22;8.80;;;4.90;;
50681;SDS011;36779;52.168;20.878;2022-08-19T16:15:16;9.70;;;4.90;;
50681;SDS011;36779;52.168;20.878;2022-08-19T16:18:07;9.60;;;5.20;;
50681;SDS011;36779;52.168;20.878;2022-08-19T16:20:56;9.50;;;5.20;;
50681;SDS011;36779;52.168;20.878;2022-08-19T16:23:46;9.30;;;4.90;;
50681;SDS011;36779;52.168;20.878;2022-08-19T16:26:36;7.70;;;5.40;;
50681;SDS011;36779;52.168;20.878;2022-08-19T16:29:25;8.60;;;5.00;;
50681;SDS011;36779;52.168;20.878;2022-08-19T16:32:25;8.10;;;5.20;;
50681;SDS011;36779;52.168;20.878;2022-08-19T16:35:14;8.10;;;5.10;;
50681;SDS011;36779;52.168;20.878;2022-08-19T16:38:03;6.60;;;5.10;;
50681;SDS011;36779;52.168;20.878;2022-08-19T16:40:54;7.90;;;5.30;;
50681;SDS011;36779;52.168;20.878;2022-08-19T16:43:43;9.80;;;5.30;;
50681;SDS011;36779;52.168;20.878;2022-08-19T16:46:33;7.20;;;5.20;;
50681;SDS011;36779;52.168;20.878;2022-08-19T16:49:25;6.00;;;4.80;;
50681;SDS011;36779;52.168;20.878;2022-08-19T16:52:34;8.50;;;5.10;;
50681;SDS011;36779;52.168;20.878;2022-08-19T16:55:23;7.20;;;5.10;;
50681;SDS011;36779;52.168;20.878;2022-08-19T16:58:14;10.80;;;5.40;;
50681;SDS011;36779;52.168;20.878;2022-08-19T17:01:06;8.60;;;5.40;;
50681;SDS011;36779;52.168;20.878;2022-08-19T17:03:52;7.70;;;5.10;;
50681;SDS011;36779;52.168;20.878;2022-08-19T17:06:42;9.10;;;5.30;;
50681;SDS011;36779;52.168;20.878;2022-08-19T17:09:31;10.80;;;5.50;;
50681;SDS011;36779;52.168;20.878;2022-08-19T17:12:21;11.50;;;5.40;;
50681;SDS011;36779;52.168;20.878;2022-08-19T17:15:17;7.80;;;4.80;;
50681;SDS011;36779;52.168;20.878;2022-08-19T17:18:07;10.20;;;5.40;;
50681;SDS011;36779;52.168;20.878;2022-08-19T17:20:59;7.70;;;5.00;;
50681;SDS011;36779;52.168;20.878;2022-08-19T17:23:49;10.30;;;5.20;;
50681;SDS011;36779;52.168;20.878;2022-08-19T17:26:38;6.50;;;4.90;;
50681;SDS011;36779;52.168;20.878;2022-08-19T17:29:27;9.30;;;5.00;;
50681;SDS011;36779;52.168;20.878;2022-08-19T17:32:16;7.50;;;5.00;;
50681;SDS011;36779;52.168;20.878;2022-08-19T17:35:12;8.20;;;5.30;;
50681;SDS011;36779;52.168;20.878;2022-08-19T17:38:02;8.10;;;5.40;;
50681;SDS011;36779;52.168;20.878;2022-08-19T17:40:52;10.40;;;5.20;;
50681;SDS011;36779;52.168;20.878;2022-08-19T17:43:47;12.90;;;5.00;;
50681;SDS011;36779;52.168;20.878;2022-08-19T17:46:36;7.80;;;5.20;;
50681;SDS011;36779;52.168;20.878;2022-08-19T17:49:25;10.30;;;5.60;;
50681;SDS011;36779;52.168;20.878;2022-08-19T17:52:13;8.90;;;5.50;;
50681;SDS011;36779;52.168;20.878;2022-08-19T17:55:03;9.30;;;5.30;;
50681;SDS011;36779;52.168;20.878;2022-08-19T17:57:53;8.00;;;5.60;;
50681;SDS011;36779;52.168;20.878;2022-08-19T18:00:42;9.70;;;6.10;;
50681;SDS011;36779;52.168;20.878;2022-08-19T18:03:41;8.80;;;5.70;;
50681;SDS011;36779;52.168;20.878;2022-08-19T18:06:30;9.70;;;5.70;;
50681;SDS011;36779;52.168;20.878;2022-08-19T18:09:20;10.90;;;5.80;;
50681;SDS011;36779;52.168;20.878;2022-08-19T18:12:11;7.40;;;5.30;;
50681;SDS011;36779;52.168;20.878;2022-08-19T18:15:02;7.20;;;5.20;;
50681;SDS011;36779;52.168;20.878;2022-08-19T18:17:53;7.60;;;5.80;;
50681;SDS011;36779;52.168;20.878;2022-08-19T18:20:43;10.00;;;5.90;;
50681;SDS011;36779;52.168;20.878;2022-08-19T18:23:32;9.40;;;5.80;;
50681;SDS011;36779;52.168;20.878;2022-08-19T18:26:32;7.40;;;5.50;;
50681;SDS011;36779;52.168;20.878;2022-08-19T18:29:21;11.20;;;5.70;;
50681;SDS011;36779;52.168;20.878;2022-08-19T18:32:11;8.00;;;5.50;;
50681;SDS011;36779;52.168;20.878;2022-08-19T18:35:02;8.10;;;5.50;;
50681;SDS011;36779;52.168;20.878;2022-08-19T18:37:58;10.50;;;5.60;;
50681;SDS011;36779;52.168;20.878;2022-08-19T18:41:10;11.90;;;5.60;;
50681;SDS011;36779;52.168;20.878;2022-08-19T18:44:18;9.20;;;6.10;;
50681;SDS011;36779;52.168;20.878;2022-08-19T18:47:26;9.10;;;5.50;;
50681;SDS011;36779;52.168;20.878;2022-08-19T18:50:33;8.20;;;6.00;;
50681;SDS011;36779;52.168;20.878;2022-08-19T18:53:24;10.80;;;5.70;;
50681;SDS011;36779;52.168;20.878;2022-08-19T18:56:16;7.40;;;5.80;;
50681;SDS011;36779;52.168;20.878;2022-08-19T18:59:06;9.70;;;6.20;;
50681;SDS011;36779;52.168;20.878;2022-08-19T19:01:58;8.60;;;6.00;;
50681;SDS011;36779;52.168;20.878;2022-08-19T19:04:48;7.60;;;5.90;;
50681;SDS011;36779;52.168;20.878;2022-08-19T19:07:37;8.60;;;5.90;;
50681;SDS011;36779;52.168;20.878;2022-08-19T19:10:27;9.40;;;5.90;;
50681;SDS011;36779;52.168;20.878;2022-08-19T19:13:16;9.50;;;6.20;;
50681;SDS011;36779;52.168;20.878;2022-08-19T19:16:05;7.90;;;6.10;;
50681;SDS011;36779;52.168;20.878;2022-08-19T19:18:48;8.90;;;6.70;;
50681;SDS011;36779;52.168;20.878;2022-08-19T19:21:39;10.60;;;5.80;;
50681;SDS011;36779;52.168;20.878;2022-08-19T19:24:34;11.50;;;6.20;;
50681;SDS011;36779;52.168;20.878;2022-08-19T19:27:25;11.30;;;6.40;;
50681;SDS011;36779;52.168;20.878;2022-08-19T19:30:15;12.20;;;6.00;;
50681;SDS011;36779;52.168;20.878;2022-08-19T19:33:04;10.40;;;6.60;;
50681;SDS011;36779;52.168;20.878;2022-08-19T19:35:55;8.20;;;6.20;;
50681;SDS011;36779;52.168;20.878;2022-08-19T19:38:44;9.20;;;6.40;;
50681;SDS011;36779;52.168;20.878;2022-08-19T19:41:35;8.60;;;6.50;;
50681;SDS011;36779;52.168;20.878;2022-08-19T19:44:24;9.60;;;6.10;;
50681;SDS011;36779;52.168;20.878;2022-08-19T19:47:19;7.90;;;6.00;;
50681;SDS011;36779;52.168;20.878;2022-08-19T19:50:10;11.60;;;6.60;;
50681;SDS011;36779;52.168;20.878;2022-08-19T19:53:02;9.60;;;6.50;;
50681;SDS011;36779;52.168;20.878;2022-08-19T19:55:52;11.00;;;6.80;;
50681;SDS011;36779;52.168;20.878;2022-08-19T19:58:44;9.70;;;6.50;;
50681;SDS011;36779;52.168;20.878;2022-08-19T20:01:35;13.40;;;6.90;;
50681;SDS011;36779;52.168;20.878;2022-08-19T20:04:24;8.90;;;6.90;;
50681;SDS011;36779;52.168;20.878;2022-08-19T20:07:14;11.30;;;6.30;;
50681;SDS011;36779;52.168;20.878;2022-08-19T20:10:04;10.80;;;6.70;;